sensor_id;sensor_type;location;lat;lon;timestamp;temperature;humidity
35796;DHT22;21916;52.428;13.302;2024-02-04T00:01:48;8.20;99.90
35796;DHT22;21916;52.428;13.302;2024-02-04T00:04:13;8.20;99.90
35796;DHT22;21916;52.428;13.302;2024-02-04T00:06:39;8.20;99.90
35796;DHT22;21916;52.428;13.302;2024-02-04T00:09:05;8.10;99.90
35796;DHT22;21916;52.428;13.302;2024-02-04T00:11:31;8.10;99.90
35796;DHT22;21916;52.428;13.302;2024-02-04T00:13:57;8.00;99.90
35796;DHT22;21916;52.428;13.302;2024-02-04T00:16:23;8.00;99.90
35796;DHT22;21916;52.428;13.302;2024-02-04T00:18:49;7.90;99.90
35796;DHT22;21916;52.428;13.302;2024-02-04T00:21:15;7.90;99.90
35796;DHT22;21916;52.428;13.302;2024-02-04T00:23:40;7.80;99.90
35796;DHT22;21916;52.428;13.302;2024-02-04T00:26:07;7.70;99.90
35796;DHT22;21916;52.428;13.302;2024-02-04T00:28:33;7.70;99.90
35796;DHT22;21916;52.428;13.302;2024-02-04T00:30:59;7.70;99.90
35796;DHT22;21916;52.428;13.302;2024-02-04T00:33:25;7.70;99.90
35796;DHT22;21916;52.428;13.302;2024-02-04T00:35:51;7.70;99.90
35796;DHT22;21916;52.428;13.302;2024-02-04T00:38:17;7.60;99.90
35796;DHT22;21916;52.428;13.302;2024-02-04T00:40:43;7.60;99.90
35796;DHT22;21916;52.428;13.302;2024-02-04T00:43:09;7.60;99.90
35796;DHT22;21916;52.428;13.302;2024-02-04T00:45:34;7.50;99.90
35796;DHT22;21916;52.428;13.302;2024-02-04T00:48:00;7.50;99.90
35796;DHT22;21916;52.428;13.302;2024-02-04T00:50:29;7.50;99.90
35796;DHT22;21916;52.428;13.302;2024-02-04T00:52:54;7.40;99.90
35796;DHT22;21916;52.428;13.302;2024-02-04T00:55:21;7.30;99.90
35796;DHT22;21916;52.428;13.302;2024-02-04T00:57:46;7.30;99.90
35796;DHT22;21916;52.428;13.302;2024-02-04T01:00:12;7.20;99.90
35796;DHT22;21916;52.428;13.302;2024-02-04T01:02:40;7.20;99.90
35796;DHT22;21916;52.428;13.302;2024-02-04T01:05:07;7.20;99.90
35796;DHT22;21916;52.428;13.302;2024-02-04T01:07:33;7.20;99.90
35796;DHT22;21916;52.428;13.302;2024-02-04T01:09:58;7.20;99.90
35796;DHT22;21916;52.428;13.302;2024-02-04T01:12:24;7.20;99.90
35796;DHT22;21916;52.428;13.302;2024-02-04T01:14:50;7.20;99.90
35796;DHT22;21916;52.428;13.302;2024-02-04T01:17:16;7.20;99.90
35796;DHT22;21916;52.428;13.302;2024-02-04T01:19:41;7.10;99.90
35796;DHT22;21916;52.428;13.302;2024-02-04T01:22:07;7.10;99.90
35796;DHT22;21916;52.428;13.302;2024-02-04T01:24:33;7.00;99.90
35796;DHT22;21916;52.428;13.302;2024-02-04T01:26:58;7.00;99.90
35796;DHT22;21916;52.428;13.302;2024-02-04T01:29:24;7.00;99.90
35796;DHT22;21916;52.428;13.302;2024-02-04T01:31:50;6.90;99.90
35796;DHT22;21916;52.428;13.302;2024-02-04T01:34:16;6.80;99.90
35796;DHT22;21916;52.428;13.302;2024-02-04T01:36:42;6.80;99.90
35796;DHT22;21916;52.428;13.302;2024-02-04T01:39:08;6.80;99.90
35796;DHT22;21916;52.428;13.302;2024-02-04T01:41:36;6.80;99.90
35796;DHT22;21916;52.428;13.302;2024-02-04T01:44:02;6.80;99.90
35796;DHT22;21916;52.428;13.302;2024-02-04T01:46:28;6.80;99.90
35796;DHT22;21916;52.428;13.302;2024-02-04T01:48:55;6.70;99.90
35796;DHT22;21916;52.428;13.302;2024-02-04T01:51:21;6.70;99.90
35796;DHT22;21916;52.428;13.302;2024-02-04T01:53:48;6.80;99.90
35796;DHT22;21916;52.428;13.302;2024-02-04T01:56:14;6.80;99.90
35796;DHT22;21916;52.428;13.302;2024-02-04T01:58:42;6.80;99.90
35796;DHT22;21916;52.428;13.302;2024-02-04T02:01:09;6.80;99.90
35796;DHT22;21916;52.428;13.302;2024-02-04T02:03:36;6.80;99.90
35796;DHT22;21916;52.428;13.302;2024-02-04T02:06:05;6.70;99.90
35796;DHT22;21916;52.428;13.302;2024-02-04T02:08:32;6.80;99.90
35796;DHT22;21916;52.428;13.302;2024-02-04T02:11:07;6.80;99.90
35796;DHT22;21916;52.428;13.302;2024-02-04T02:13:35;6.80;99.90
35796;DHT22;21916;52.428;13.302;2024-02-04T02:16:15;6.70;99.90
35796;DHT22;21916;52.428;13.302;2024-02-04T02:18:48;6.70;99.90
35796;DHT22;21916;52.428;13.302;2024-02-04T02:26:49;6.50;99.90
35796;DHT22;21916;52.428;13.302;2024-02-04T02:29:15;6.50;99.90
35796;DHT22;21916;52.428;13.302;2024-02-04T02:31:42;6.50;99.90
35796;DHT22;21916;52.428;13.302;2024-02-04T02:34:09;6.50;99.90
35796;DHT22;21916;52.428;13.302;2024-02-04T02:36:43;6.50;99.90
35796;DHT22;21916;52.428;13.302;2024-02-04T02:39:18;6.40;99.90
35796;DHT22;21916;52.428;13.302;2024-02-04T02:41:50;6.50;99.90
35796;DHT22;21916;52.428;13.302;2024-02-04T02:44:18;6.50;99.90
35796;DHT22;21916;52.428;13.302;2024-02-04T02:46:46;6.50;99.90
35796;DHT22;21916;52.428;13.302;2024-02-04T02:49:12;6.50;99.90
35796;DHT22;21916;52.428;13.302;2024-02-04T02:51:38;6.50;99.90
35796;DHT22;21916;52.428;13.302;2024-02-04T02:54:04;6.50;99.90
35796;DHT22;21916;52.428;13.302;2024-02-04T02:56:29;6.50;99.90
35796;DHT22;21916;52.428;13.302;2024-02-04T02:58:55;6.40;99.90
35796;DHT22;21916;52.428;13.302;2024-02-04T03:01:21;6.50;99.90
35796;DHT22;21916;52.428;13.302;2024-02-04T03:03:47;6.40;99.90
35796;DHT22;21916;52.428;13.302;2024-02-04T03:06:13;6.50;99.90
35796;DHT22;21916;52.428;13.302;2024-02-04T03:08:38;6.50;99.90
35796;DHT22;21916;52.428;13.302;2024-02-04T03:11:04;6.50;99.90
35796;DHT22;21916;52.428;13.302;2024-02-04T03:13:30;6.50;99.90
35796;DHT22;21916;52.428;13.302;2024-02-04T03:15:56;6.50;99.90
35796;DHT22;21916;52.428;13.302;2024-02-04T03:18:22;6.60;99.90
35796;DHT22;21916;52.428;13.302;2024-02-04T03:20:48;6.60;99.90
35796;DHT22;21916;52.428;13.302;2024-02-04T03:23:14;6.70;99.90
35796;DHT22;21916;52.428;13.302;2024-02-04T03:25:40;6.70;99.90
35796;DHT22;21916;52.428;13.302;2024-02-04T03:28:05;6.80;99.90
35796;DHT22;21916;52.428;13.302;2024-02-04T03:30:31;6.80;99.90
35796;DHT22;21916;52.428;13.302;2024-02-04T03:32:57;6.90;99.90
35796;DHT22;21916;52.428;13.302;2024-02-04T03:35:22;6.90;99.90
35796;DHT22;21916;52.428;13.302;2024-02-04T03:37:48;6.90;99.90
35796;DHT22;21916;52.428;13.302;2024-02-04T03:40:14;6.90;99.90
35796;DHT22;21916;52.428;13.302;2024-02-04T03:42:40;6.90;99.90
35796;DHT22;21916;52.428;13.302;2024-02-04T03:45:06;7.00;99.90
35796;DHT22;21916;52.428;13.302;2024-02-04T03:47:32;6.90;99.90
35796;DHT22;21916;52.428;13.302;2024-02-04T03:49:58;6.90;99.90
35796;DHT22;21916;52.428;13.302;2024-02-04T03:52:24;6.90;99.90
35796;DHT22;21916;52.428;13.302;2024-02-04T03:54:50;6.90;99.90
35796;DHT22;21916;52.428;13.302;2024-02-04T03:57:15;6.90;99.90
35796;DHT22;21916;52.428;13.302;2024-02-04T03:59:45;7.00;99.90
35796;DHT22;21916;52.428;13.302;2024-02-04T04:02:12;6.90;99.90
35796;DHT22;21916;52.428;13.302;2024-02-04T04:04:40;6.80;99.90
35796;DHT22;21916;52.428;13.302;2024-02-04T04:07:07;6.70;99.90
35796;DHT22;21916;52.428;13.302;2024-02-04T04:09:33;6.70;99.90
35796;DHT22;21916;52.428;13.302;2024-02-04T04:11:59;6.70;99.90
35796;DHT22;21916;52.428;13.302;2024-02-04T04:14:25;6.60;99.90
35796;DHT22;21916;52.428;13.302;2024-02-04T04:16:50;6.70;99.90
35796;DHT22;21916;52.428;13.302;2024-02-04T04:19:16;6.60;99.90
35796;DHT22;21916;52.428;13.302;2024-02-04T04:21:42;6.60;99.90
35796;DHT22;21916;52.428;13.302;2024-02-04T04:24:07;6.50;99.90
35796;DHT22;21916;52.428;13.302;2024-02-04T04:26:33;6.50;99.90
35796;DHT22;21916;52.428;13.302;2024-02-04T04:28:59;6.40;99.90
35796;DHT22;21916;52.428;13.302;2024-02-04T04:31:25;6.40;99.90
35796;DHT22;21916;52.428;13.302;2024-02-04T04:33:51;6.40;99.90
35796;DHT22;21916;52.428;13.302;2024-02-04T04:36:19;6.40;99.90
35796;DHT22;21916;52.428;13.302;2024-02-04T04:38:45;6.40;99.90
35796;DHT22;21916;52.428;13.302;2024-02-04T04:41:10;6.30;99.90
35796;DHT22;21916;52.428;13.302;2024-02-04T04:43:39;6.30;99.90
35796;DHT22;21916;52.428;13.302;2024-02-04T04:46:05;6.20;99.90
35796;DHT22;21916;52.428;13.302;2024-02-04T04:48:30;6.20;99.90
35796;DHT22;21916;52.428;13.302;2024-02-04T04:50:56;6.20;99.90
35796;DHT22;21916;52.428;13.302;2024-02-04T04:53:22;6.20;99.90
35796;DHT22;21916;52.428;13.302;2024-02-04T04:55:48;6.10;99.90
35796;DHT22;21916;52.428;13.302;2024-02-04T04:58:13;6.10;99.90
35796;DHT22;21916;52.428;13.302;2024-02-04T05:00:39;6.10;99.90
35796;DHT22;21916;52.428;13.302;2024-02-04T05:03:06;6.10;99.90
35796;DHT22;21916;52.428;13.302;2024-02-04T05:05:31;6.10;99.90
35796;DHT22;21916;52.428;13.302;2024-02-04T05:07:57;6.10;99.90
35796;DHT22;21916;52.428;13.302;2024-02-04T05:10:26;6.00;99.90
35796;DHT22;21916;52.428;13.302;2024-02-04T05:12:52;6.00;99.90
35796;DHT22;21916;52.428;13.302;2024-02-04T05:15:18;6.00;99.90
35796;DHT22;21916;52.428;13.302;2024-02-04T05:17:43;6.00;99.90
35796;DHT22;21916;52.428;13.302;2024-02-04T05:20:09;6.00;99.90
35796;DHT22;21916;52.428;13.302;2024-02-04T05:22:35;6.00;99.90
35796;DHT22;21916;52.428;13.302;2024-02-04T05:25:01;6.10;99.90
35796;DHT22;21916;52.428;13.302;2024-02-04T05:27:27;6.10;99.90
35796;DHT22;21916;52.428;13.302;2024-02-04T05:29:53;6.10;99.90
35796;DHT22;21916;52.428;13.302;2024-02-04T05:32:18;6.10;99.90
35796;DHT22;21916;52.428;13.302;2024-02-04T05:34:44;6.10;99.90
35796;DHT22;21916;52.428;13.302;2024-02-04T05:37:10;6.10;99.90
35796;DHT22;21916;52.428;13.302;2024-02-04T05:39:36;6.20;99.90
35796;DHT22;21916;52.428;13.302;2024-02-04T05:42:02;6.20;99.90
35796;DHT22;21916;52.428;13.302;2024-02-04T05:44:28;6.20;99.90
35796;DHT22;21916;52.428;13.302;2024-02-04T05:46:54;6.20;99.90
35796;DHT22;21916;52.428;13.302;2024-02-04T05:49:19;6.20;99.90
35796;DHT22;21916;52.428;13.302;2024-02-04T05:51:45;6.20;99.90
35796;DHT22;21916;52.428;13.302;2024-02-04T05:54:12;6.20;99.90
35796;DHT22;21916;52.428;13.302;2024-02-04T05:56:38;6.20;99.90
35796;DHT22;21916;52.428;13.302;2024-02-04T05:59:04;6.30;99.90
35796;DHT22;21916;52.428;13.302;2024-02-04T06:01:30;6.30;99.90
35796;DHT22;21916;52.428;13.302;2024-02-04T06:03:57;6.30;99.90
35796;DHT22;21916;52.428;13.302;2024-02-04T06:06:23;6.30;99.90
35796;DHT22;21916;52.428;13.302;2024-02-04T06:08:49;6.40;99.90
35796;DHT22;21916;52.428;13.302;2024-02-04T06:11:15;6.40;99.90
35796;DHT22;21916;52.428;13.302;2024-02-04T06:13:43;6.50;99.90
35796;DHT22;21916;52.428;13.302;2024-02-04T06:16:10;6.50;99.90
35796;DHT22;21916;52.428;13.302;2024-02-04T06:18:38;6.50;99.90
35796;DHT22;21916;52.428;13.302;2024-02-04T06:21:07;6.60;99.90
35796;DHT22;21916;52.428;13.302;2024-02-04T06:23:33;6.60;99.90
35796;DHT22;21916;52.428;13.302;2024-02-04T06:26:00;6.60;99.90
35796;DHT22;21916;52.428;13.302;2024-02-04T06:28:26;6.60;99.90
35796;DHT22;21916;52.428;13.302;2024-02-04T06:30:52;6.60;99.90
35796;DHT22;21916;52.428;13.302;2024-02-04T06:33:17;6.60;99.90
35796;DHT22;21916;52.428;13.302;2024-02-04T06:35:43;6.60;99.90
35796;DHT22;21916;52.428;13.302;2024-02-04T06:38:09;6.50;99.90
35796;DHT22;21916;52.428;13.302;2024-02-04T06:40:35;6.50;99.90
35796;DHT22;21916;52.428;13.302;2024-02-04T06:43:00;6.50;99.90
35796;DHT22;21916;52.428;13.302;2024-02-04T06:45:26;6.50;99.90
35796;DHT22;21916;52.428;13.302;2024-02-04T06:47:52;6.50;99.90
35796;DHT22;21916;52.428;13.302;2024-02-04T06:50:17;6.50;99.90
35796;DHT22;21916;52.428;13.302;2024-02-04T06:52:43;6.50;99.90
35796;DHT22;21916;52.428;13.302;2024-02-04T06:55:10;6.50;99.90
35796;DHT22;21916;52.428;13.302;2024-02-04T06:57:36;6.50;99.90
35796;DHT22;21916;52.428;13.302;2024-02-04T07:00:02;6.50;99.90
35796;DHT22;21916;52.428;13.302;2024-02-04T07:02:31;6.50;99.90
35796;DHT22;21916;52.428;13.302;2024-02-04T07:04:57;6.60;99.90
35796;DHT22;21916;52.428;13.302;2024-02-04T07:07:23;6.60;99.90
35796;DHT22;21916;52.428;13.302;2024-02-04T07:09:48;6.60;99.90
35796;DHT22;21916;52.428;13.302;2024-02-04T07:12:14;6.60;99.90
35796;DHT22;21916;52.428;13.302;2024-02-04T07:14:40;6.70;99.90
35796;DHT22;21916;52.428;13.302;2024-02-04T07:17:06;6.70;99.90
35796;DHT22;21916;52.428;13.302;2024-02-04T07:19:31;6.70;99.90
35796;DHT22;21916;52.428;13.302;2024-02-04T07:21:57;6.80;99.90
35796;DHT22;21916;52.428;13.302;2024-02-04T07:24:23;6.80;99.90
35796;DHT22;21916;52.428;13.302;2024-02-04T07:26:48;6.80;99.90
35796;DHT22;21916;52.428;13.302;2024-02-04T07:29:14;6.80;99.90
35796;DHT22;21916;52.428;13.302;2024-02-04T07:31:40;6.80;99.90
35796;DHT22;21916;52.428;13.302;2024-02-04T07:34:06;6.80;99.90
35796;DHT22;21916;52.428;13.302;2024-02-04T07:36:31;6.90;99.90
35796;DHT22;21916;52.428;13.302;2024-02-04T07:38:57;6.90;99.90
35796;DHT22;21916;52.428;13.302;2024-02-04T07:41:25;6.90;99.90
35796;DHT22;21916;52.428;13.302;2024-02-04T07:43:51;6.90;99.90
35796;DHT22;21916;52.428;13.302;2024-02-04T07:46:17;6.90;99.90
35796;DHT22;21916;52.428;13.302;2024-02-04T07:48:43;7.00;99.90
35796;DHT22;21916;52.428;13.302;2024-02-04T07:51:09;7.00;99.90
35796;DHT22;21916;52.428;13.302;2024-02-04T07:53:35;7.00;99.90
35796;DHT22;21916;52.428;13.302;2024-02-04T07:56:02;7.00;99.90
35796;DHT22;21916;52.428;13.302;2024-02-04T07:58:29;7.00;99.90
35796;DHT22;21916;52.428;13.302;2024-02-04T08:00:55;7.10;99.90
35796;DHT22;21916;52.428;13.302;2024-02-04T08:03:21;7.10;99.90
35796;DHT22;21916;52.428;13.302;2024-02-04T08:05:47;7.10;99.90
35796;DHT22;21916;52.428;13.302;2024-02-04T08:08:13;7.10;99.90
35796;DHT22;21916;52.428;13.302;2024-02-04T08:10:39;7.10;99.90
35796;DHT22;21916;52.428;13.302;2024-02-04T08:13:04;7.20;99.90
35796;DHT22;21916;52.428;13.302;2024-02-04T08:15:30;7.20;99.90
35796;DHT22;21916;52.428;13.302;2024-02-04T08:17:56;7.30;99.90
35796;DHT22;21916;52.428;13.302;2024-02-04T08:20:22;7.30;99.90
35796;DHT22;21916;52.428;13.302;2024-02-04T08:22:47;7.30;99.90
35796;DHT22;21916;52.428;13.302;2024-02-04T08:25:14;7.30;99.90
35796;DHT22;21916;52.428;13.302;2024-02-04T08:27:40;7.40;99.90
35796;DHT22;21916;52.428;13.302;2024-02-04T08:30:06;7.30;99.90
35796;DHT22;21916;52.428;13.302;2024-02-04T08:32:33;7.40;99.90
35796;DHT22;21916;52.428;13.302;2024-02-04T08:34:59;7.40;99.90
35796;DHT22;21916;52.428;13.302;2024-02-04T08:37:24;7.40;99.90
35796;DHT22;21916;52.428;13.302;2024-02-04T08:39:50;7.40;99.90
35796;DHT22;21916;52.428;13.302;2024-02-04T08:42:16;7.40;99.90
35796;DHT22;21916;52.428;13.302;2024-02-04T08:44:41;7.50;99.90
35796;DHT22;21916;52.428;13.302;2024-02-04T08:47:07;7.50;99.90
35796;DHT22;21916;52.428;13.302;2024-02-04T08:49:38;7.50;99.90
35796;DHT22;21916;52.428;13.302;2024-02-04T08:52:04;7.60;99.90
35796;DHT22;21916;52.428;13.302;2024-02-04T08:54:30;7.70;99.90
35796;DHT22;21916;52.428;13.302;2024-02-04T08:56:56;7.70;99.90
35796;DHT22;21916;52.428;13.302;2024-02-04T08:59:22;7.70;99.90
35796;DHT22;21916;52.428;13.302;2024-02-04T09:01:50;7.70;99.90
35796;DHT22;21916;52.428;13.302;2024-02-04T09:04:16;7.80;99.90
35796;DHT22;21916;52.428;13.302;2024-02-04T09:06:42;7.80;99.90
35796;DHT22;21916;52.428;13.302;2024-02-04T09:09:08;7.80;99.90
35796;DHT22;21916;52.428;13.302;2024-02-04T09:11:35;7.70;99.90
35796;DHT22;21916;52.428;13.302;2024-02-04T09:14:00;7.80;99.90
35796;DHT22;21916;52.428;13.302;2024-02-04T09:16:28;7.90;99.90
35796;DHT22;21916;52.428;13.302;2024-02-04T09:18:54;7.90;99.90
35796;DHT22;21916;52.428;13.302;2024-02-04T09:21:20;7.90;99.90
35796;DHT22;21916;52.428;13.302;2024-02-04T09:23:48;7.90;99.90
35796;DHT22;21916;52.428;13.302;2024-02-04T09:26:15;7.90;99.90
35796;DHT22;21916;52.428;13.302;2024-02-04T09:28:40;8.00;99.90
35796;DHT22;21916;52.428;13.302;2024-02-04T09:31:09;8.10;99.90
35796;DHT22;21916;52.428;13.302;2024-02-04T09:33:35;8.10;99.90
35796;DHT22;21916;52.428;13.302;2024-02-04T09:36:01;8.10;99.90
35796;DHT22;21916;52.428;13.302;2024-02-04T09:38:27;8.10;99.90
35796;DHT22;21916;52.428;13.302;2024-02-04T09:40:53;8.10;99.90
35796;DHT22;21916;52.428;13.302;2024-02-04T09:43:22;8.10;99.90
35796;DHT22;21916;52.428;13.302;2024-02-04T09:45:49;8.20;99.90
35796;DHT22;21916;52.428;13.302;2024-02-04T09:48:18;8.30;99.90
35796;DHT22;21916;52.428;13.302;2024-02-04T09:50:46;8.30;99.90
35796;DHT22;21916;52.428;13.302;2024-02-04T09:53:15;8.50;99.90
35796;DHT22;21916;52.428;13.302;2024-02-04T09:55:43;8.60;99.90
35796;DHT22;21916;52.428;13.302;2024-02-04T09:58:10;8.50;99.90
35796;DHT22;21916;52.428;13.302;2024-02-04T10:00:38;8.50;99.90
35796;DHT22;21916;52.428;13.302;2024-02-04T10:03:05;8.50;99.90
35796;DHT22;21916;52.428;13.302;2024-02-04T10:05:31;8.60;99.90
35796;DHT22;21916;52.428;13.302;2024-02-04T10:07:57;8.60;99.90
35796;DHT22;21916;52.428;13.302;2024-02-04T10:10:23;8.60;99.90
35796;DHT22;21916;52.428;13.302;2024-02-04T10:12:48;8.60;99.90
35796;DHT22;21916;52.428;13.302;2024-02-04T10:15:14;8.60;99.90
35796;DHT22;21916;52.428;13.302;2024-02-04T10:17:45;8.70;99.90
35796;DHT22;21916;52.428;13.302;2024-02-04T10:20:11;8.70;99.90
35796;DHT22;21916;52.428;13.302;2024-02-04T10:22:38;8.60;99.90
35796;DHT22;21916;52.428;13.302;2024-02-04T10:25:10;8.70;99.90
35796;DHT22;21916;52.428;13.302;2024-02-04T10:27:40;8.70;99.90
35796;DHT22;21916;52.428;13.302;2024-02-04T10:30:07;8.70;99.90
35796;DHT22;21916;52.428;13.302;2024-02-04T10:32:34;8.70;99.90
35796;DHT22;21916;52.428;13.302;2024-02-04T10:34:59;8.70;99.90
35796;DHT22;21916;52.428;13.302;2024-02-04T10:37:26;8.90;99.90
35796;DHT22;21916;52.428;13.302;2024-02-04T10:39:52;8.80;99.90
35796;DHT22;21916;52.428;13.302;2024-02-04T10:42:23;8.90;99.90
35796;DHT22;21916;52.428;13.302;2024-02-04T10:44:51;8.80;99.90
35796;DHT22;21916;52.428;13.302;2024-02-04T10:47:22;8.80;99.90
35796;DHT22;21916;52.428;13.302;2024-02-04T10:49:50;8.80;99.90
35796;DHT22;21916;52.428;13.302;2024-02-04T10:52:18;8.80;99.90
35796;DHT22;21916;52.428;13.302;2024-02-04T10:54:44;8.70;99.90
35796;DHT22;21916;52.428;13.302;2024-02-04T10:57:19;8.70;99.90
35796;DHT22;21916;52.428;13.302;2024-02-04T10:59:47;8.70;99.90
35796;DHT22;21916;52.428;13.302;2024-02-04T11:02:15;8.70;99.90
35796;DHT22;21916;52.428;13.302;2024-02-04T11:04:42;8.80;99.90
35796;DHT22;21916;52.428;13.302;2024-02-04T11:07:09;8.80;99.90
35796;DHT22;21916;52.428;13.302;2024-02-04T11:09:36;8.80;99.90
35796;DHT22;21916;52.428;13.302;2024-02-04T11:12:05;8.80;99.90
35796;DHT22;21916;52.428;13.302;2024-02-04T11:14:33;8.80;99.90
35796;DHT22;21916;52.428;13.302;2024-02-04T11:20:02;8.90;99.90
35796;DHT22;21916;52.428;13.302;2024-02-04T11:23:07;8.80;99.90
35796;DHT22;21916;52.428;13.302;2024-02-04T11:28:12;8.70;99.90
35796;DHT22;21916;52.428;13.302;2024-02-04T11:30:38;8.70;99.90
35796;DHT22;21916;52.428;13.302;2024-02-04T11:33:05;8.80;99.90
35796;DHT22;21916;52.428;13.302;2024-02-04T11:35:32;8.70;99.90
35796;DHT22;21916;52.428;13.302;2024-02-04T11:37:59;8.80;99.90
35796;DHT22;21916;52.428;13.302;2024-02-04T11:40:39;8.90;99.90
35796;DHT22;21916;52.428;13.302;2024-02-04T11:43:06;8.90;99.90
35796;DHT22;21916;52.428;13.302;2024-02-04T11:45:32;9.00;99.90
35796;DHT22;21916;52.428;13.302;2024-02-04T11:48:02;9.00;99.90
35796;DHT22;21916;52.428;13.302;2024-02-04T11:50:30;9.00;99.90
35796;DHT22;21916;52.428;13.302;2024-02-04T11:55:34;9.00;99.90
35796;DHT22;21916;52.428;13.302;2024-02-04T11:58:01;8.80;99.90
35796;DHT22;21916;52.428;13.302;2024-02-04T12:00:27;8.80;99.90
35796;DHT22;21916;52.428;13.302;2024-02-04T12:03:06;8.80;99.90
35796;DHT22;21916;52.428;13.302;2024-02-04T12:05:33;8.70;99.90
35796;DHT22;21916;52.428;13.302;2024-02-04T12:08:07;8.70;99.90
35796;DHT22;21916;52.428;13.302;2024-02-04T12:10:34;8.80;99.90
35796;DHT22;21916;52.428;13.302;2024-02-04T12:13:05;8.90;99.90
35796;DHT22;21916;52.428;13.302;2024-02-04T12:15:34;8.90;99.90
35796;DHT22;21916;52.428;13.302;2024-02-04T12:18:10;8.90;99.90
35796;DHT22;21916;52.428;13.302;2024-02-04T12:20:37;8.80;99.90
35796;DHT22;21916;52.428;13.302;2024-02-04T12:23:03;8.80;99.90
35796;DHT22;21916;52.428;13.302;2024-02-04T12:25:30;8.80;99.90
35796;DHT22;21916;52.428;13.302;2024-02-04T12:28:00;8.80;99.90
35796;DHT22;21916;52.428;13.302;2024-02-04T12:30:28;8.80;99.90
35796;DHT22;21916;52.428;13.302;2024-02-04T12:32:58;8.70;99.90
35796;DHT22;21916;52.428;13.302;2024-02-04T12:35:25;8.70;99.90
35796;DHT22;21916;52.428;13.302;2024-02-04T12:37:55;8.60;99.90
35796;DHT22;21916;52.428;13.302;2024-02-04T12:42:59;8.60;99.90
35796;DHT22;21916;52.428;13.302;2024-02-04T12:45:25;8.60;99.90
35796;DHT22;21916;52.428;13.302;2024-02-04T12:47:52;8.60;99.90
35796;DHT22;21916;52.428;13.302;2024-02-04T12:50:19;8.60;99.90
35796;DHT22;21916;52.428;13.302;2024-02-04T12:52:49;8.60;99.90
35796;DHT22;21916;52.428;13.302;2024-02-04T12:55:26;8.70;99.90
35796;DHT22;21916;52.428;13.302;2024-02-04T12:58:07;8.70;99.90
35796;DHT22;21916;52.428;13.302;2024-02-04T13:00:35;8.70;99.90
35796;DHT22;21916;52.428;13.302;2024-02-04T13:03:06;8.70;99.90
35796;DHT22;21916;52.428;13.302;2024-02-04T13:05:33;8.70;99.90
35796;DHT22;21916;52.428;13.302;2024-02-04T13:08:02;8.70;99.90
35796;DHT22;21916;52.428;13.302;2024-02-04T13:10:32;8.60;99.90
35796;DHT22;21916;52.428;13.302;2024-02-04T13:13:03;8.70;99.90
35796;DHT22;21916;52.428;13.302;2024-02-04T13:15:42;8.70;99.90
35796;DHT22;21916;52.428;13.302;2024-02-04T13:18:09;8.70;99.90
35796;DHT22;21916;52.428;13.302;2024-02-04T13:20:37;8.60;99.90
35796;DHT22;21916;52.428;13.302;2024-02-04T13:23:04;8.60;99.90
35796;DHT22;21916;52.428;13.302;2024-02-04T13:25:32;8.60;99.90
35796;DHT22;21916;52.428;13.302;2024-02-04T13:27:59;8.60;99.90
35796;DHT22;21916;52.428;13.302;2024-02-04T13:30:25;8.60;99.90
35796;DHT22;21916;52.428;13.302;2024-02-04T13:32:51;8.60;99.90
35796;DHT22;21916;52.428;13.302;2024-02-04T13:35:17;8.60;99.90
35796;DHT22;21916;52.428;13.302;2024-02-04T13:37:47;8.60;99.90
35796;DHT22;21916;52.428;13.302;2024-02-04T13:40:14;8.60;99.90
35796;DHT22;21916;52.428;13.302;2024-02-04T13:42:40;8.60;99.90
35796;DHT22;21916;52.428;13.302;2024-02-04T13:45:06;8.60;99.90
35796;DHT22;21916;52.428;13.302;2024-02-04T13:47:32;8.60;99.90
35796;DHT22;21916;52.428;13.302;2024-02-04T13:49:58;8.60;99.90
35796;DHT22;21916;52.428;13.302;2024-02-04T13:52:24;8.50;99.90
35796;DHT22;21916;52.428;13.302;2024-02-04T13:54:49;8.60;99.90
35796;DHT22;21916;52.428;13.302;2024-02-04T13:57:15;8.60;99.90
35796;DHT22;21916;52.428;13.302;2024-02-04T13:59:41;8.60;99.90
35796;DHT22;21916;52.428;13.302;2024-02-04T14:02:07;8.60;99.90
35796;DHT22;21916;52.428;13.302;2024-02-04T14:04:36;8.60;99.90
35796;DHT22;21916;52.428;13.302;2024-02-04T14:07:02;8.60;99.90
35796;DHT22;21916;52.428;13.302;2024-02-04T14:09:28;8.60;99.90
35796;DHT22;21916;52.428;13.302;2024-02-04T14:11:54;8.60;99.90
35796;DHT22;21916;52.428;13.302;2024-02-04T14:14:23;8.60;99.90
35796;DHT22;21916;52.428;13.302;2024-02-04T14:16:49;8.50;99.90
35796;DHT22;21916;52.428;13.302;2024-02-04T14:19:15;8.60;99.90
35796;DHT22;21916;52.428;13.302;2024-02-04T14:21:41;8.60;99.90
35796;DHT22;21916;52.428;13.302;2024-02-04T14:24:07;8.60;99.90
35796;DHT22;21916;52.428;13.302;2024-02-04T14:26:33;8.50;99.90
35796;DHT22;21916;52.428;13.302;2024-02-04T14:28:59;8.50;99.90
35796;DHT22;21916;52.428;13.302;2024-02-04T14:31:25;8.50;99.90
35796;DHT22;21916;52.428;13.302;2024-02-04T14:33:51;8.50;99.90
35796;DHT22;21916;52.428;13.302;2024-02-04T14:36:16;8.50;99.90
35796;DHT22;21916;52.428;13.302;2024-02-04T14:38:45;8.50;99.90
35796;DHT22;21916;52.428;13.302;2024-02-04T14:41:11;8.50;99.90
35796;DHT22;21916;52.428;13.302;2024-02-04T14:43:37;8.50;99.90
35796;DHT22;21916;52.428;13.302;2024-02-04T14:46:04;8.50;99.90
35796;DHT22;21916;52.428;13.302;2024-02-04T14:48:30;8.50;99.90
35796;DHT22;21916;52.428;13.302;2024-02-04T14:50:56;8.50;99.90
35796;DHT22;21916;52.428;13.302;2024-02-04T14:53:24;8.50;99.90
35796;DHT22;21916;52.428;13.302;2024-02-04T14:55:50;8.50;99.90
35796;DHT22;21916;52.428;13.302;2024-02-04T14:58:16;8.50;99.90
35796;DHT22;21916;52.428;13.302;2024-02-04T15:00:41;8.50;99.90
35796;DHT22;21916;52.428;13.302;2024-02-04T15:03:08;8.60;99.90
35796;DHT22;21916;52.428;13.302;2024-02-04T15:05:35;8.50;99.90
35796;DHT22;21916;52.428;13.302;2024-02-04T15:08:01;8.50;99.90
35796;DHT22;21916;52.428;13.302;2024-02-04T15:10:26;8.50;99.90
35796;DHT22;21916;52.428;13.302;2024-02-04T15:12:53;8.60;99.90
35796;DHT22;21916;52.428;13.302;2024-02-04T15:15:19;8.50;99.90
35796;DHT22;21916;52.428;13.302;2024-02-04T15:17:45;8.60;99.90
35796;DHT22;21916;52.428;13.302;2024-02-04T15:20:12;8.60;99.90
35796;DHT22;21916;52.428;13.302;2024-02-04T15:22:40;8.60;99.90
35796;DHT22;21916;52.428;13.302;2024-02-04T15:25:07;8.60;99.90
35796;DHT22;21916;52.428;13.302;2024-02-04T15:27:34;8.60;99.90
35796;DHT22;21916;52.428;13.302;2024-02-04T15:30:00;8.60;99.90
35796;DHT22;21916;52.428;13.302;2024-02-04T15:32:26;8.60;99.90
35796;DHT22;21916;52.428;13.302;2024-02-04T15:34:52;8.60;99.90
35796;DHT22;21916;52.428;13.302;2024-02-04T15:37:18;8.60;99.90
35796;DHT22;21916;52.428;13.302;2024-02-04T15:39:44;8.60;99.90
35796;DHT22;21916;52.428;13.302;2024-02-04T15:42:10;8.60;99.90
35796;DHT22;21916;52.428;13.302;2024-02-04T15:44:36;8.60;99.90